Time;durP1;ratioP1;P1;durP2;ratioP2;P2;SDS_P1;SDS_P2;PMS_P1;PMS_P2;Temp;Humidity;BMP_temperature;BMP_pressure;BME280_temperature;BME280_humidity;BME280_pressure;Samples;Min_cycle;Max_cycle;Signal;HPM_P1;HPM_P2
2021/08/17 00:01:16;;;;;;;;;2.00;1.00;;;;;17.28;57.47;101849.31;5053297;28;45889;-79
2021/08/17 00:03:41;;;;;;;;;0.00;0.00;;;;;17.05;57.34;101811.63;5050936;28;46287;-79
2021/08/17 00:06:08;;;;;;;;;0.75;0.75;;;;;17.31;57.74;101849.31;5047774;28;45599;-79
2021/08/17 00:08:33;;;;;;;;;0.00;0.00;;;;;17.30;57.27;101843.16;5040399;28;45492;-79
2021/08/17 00:10:59;;;;;;;;;0.00;0.00;;;;;17.29;57.13;101851.06;5022201;28;45518;-78
2021/08/17 00:13:24;;;;;;;;;3.00;0.00;;;;;17.18;57.11;101830.06;5055429;28;45427;-79
2021/08/17 00:15:50;;;;;;;;;0.00;0.00;;;;;17.07;57.90;101820.41;5050998;28;45473;-79
2021/08/17 00:18:15;;;;;;;;;1.00;0.75;;;;;17.10;57.56;101819.53;5049849;28;45429;-79
2021/08/17 00:20:42;;;;;;;;;0.00;0.00;;;;;17.25;57.16;101825.66;5048955;28;45426;-79
2021/08/17 00:23:08;;;;;;;;;2.25;1.25;;;;;17.23;58.02;101836.16;5055014;28;45406;-79
2021/08/17 00:25:34;;;;;;;;;0.00;0.00;;;;;17.37;57.49;101849.31;5054384;28;46062;-79
2021/08/17 00:28:00;;;;;;;;;1.00;1.00;;;;;17.25;57.48;101833.53;5044184;28;45497;-80
2021/08/17 00:30:25;;;;;;;;;2.75;1.00;;;;;17.05;57.34;101814.25;5047942;28;45732;-79
2021/08/17 00:32:51;;;;;;;;;0.00;0.00;;;;;17.14;58.06;101836.16;5050998;28;46109;-79
2021/08/17 00:35:16;;;;;;;;;1.75;1.75;;;;;17.00;58.45;101833.53;5054673;28;54571;-80
2021/08/17 00:37:41;;;;;;;;;0.00;0.00;;;;;17.05;58.32;101844.91;5053044;28;45419;-80
2021/08/17 00:40:07;;;;;;;;;0.50;0.50;;;;;17.06;58.77;101836.16;5050511;28;45571;-79
2021/08/17 00:42:41;;;;;;;;;1.00;1.00;;;;;17.04;58.96;101815.13;5050246;28;45442;-79
2021/08/17 00:45:12;;;;;;;;;0.75;0.00;;;;;17.14;58.63;101826.53;5050286;28;45474;-79
2021/08/17 00:47:38;;;;;;;;;0.00;0.00;;;;;17.25;58.32;101831.78;5052366;28;45383;-79
2021/08/17 00:50:04;;;;;;;;;0.00;0.00;;;;;17.28;58.34;101833.53;5053413;28;45226;-79
2021/08/17 00:52:30;;;;;;;;;0.00;0.00;;;;;17.23;58.18;101828.28;5041013;28;45260;-78
2021/08/17 00:54:56;;;;;;;;;0.00;0.00;;;;;17.28;58.67;101830.91;5050042;28;45547;-79
2021/08/17 00:57:22;;;;;;;;;1.75;1.75;;;;;16.81;58.15;101755.53;5050925;28;45361;-80
2021/08/17 00:59:47;;;;;;;;;0.00;0.00;;;;;17.27;57.65;101829.16;5051392;28;45356;-80
2021/08/17 01:02:12;;;;;;;;;1.00;1.00;;;;;17.32;57.74;101838.78;5054055;28;45403;-79
2021/08/17 01:04:39;;;;;;;;;0.50;0.50;;;;;17.30;57.95;101829.16;5052631;28;45355;-79
2021/08/17 01:07:08;;;;;;;;;0.00;0.00;;;;;17.26;58.16;101825.66;5042360;28;45449;-79
2021/08/17 01:09:35;;;;;;;;;0.50;0.00;;;;;17.26;58.21;101825.66;5041935;28;45209;-79
2021/08/17 01:12:01;;;;;;;;;1.25;1.00;;;;;17.23;58.47;101823.00;5041768;28;45549;-81
2021/08/17 01:14:27;;;;;;;;;0.00;0.00;;;;;17.23;58.43;101820.38;5038096;28;45423;-80
2021/08/17 01:16:52;;;;;;;;;1.00;0.25;;;;;17.28;58.09;101831.78;5040320;28;45419;-80
2021/08/17 01:19:19;;;;;;;;;1.00;0.25;;;;;17.27;58.70;101821.28;5042282;28;45525;-78
2021/08/17 01:21:46;;;;;;;;;0.00;0.00;;;;;17.29;58.83;101827.38;5041383;28;46205;-78
2021/08/17 01:24:12;;;;;;;;;1.00;1.00;;;;;17.25;58.21;101823.91;5041252;28;45351;-79
2021/08/17 01:26:37;;;;;;;;;1.25;0.00;;;;;17.24;58.34;101829.16;5039805;28;45482;-79
2021/08/17 01:29:02;;;;;;;;;0.00;0.00;;;;;17.07;58.23;101815.16;5045077;28;45351;-79
2021/08/17 01:31:29;;;;;;;;;0.00;0.00;;;;;17.04;58.90;101812.50;5051711;28;51521;-79
2021/08/17 01:33:55;;;;;;;;;0.50;0.50;;;;;17.13;58.76;101834.44;5049950;28;45550;-79
2021/08/17 01:36:20;;;;;;;;;1.75;1.75;;;;;17.05;58.61;101823.88;5049206;28;45434;-79
2021/08/17 01:38:52;;;;;;;;;0.00;0.00;;;;;17.09;58.91;101833.56;5040765;28;45388;-79
2021/08/17 01:41:18;;;;;;;;;1.00;1.00;;;;;17.09;58.67;101841.47;5037017;28;46280;-79
2021/08/17 01:43:44;;;;;;;;;0.00;0.00;;;;;17.08;58.56;101842.31;5040728;28;45482;-79
2021/08/17 01:46:11;;;;;;;;;0.75;0.75;;;;;17.08;58.96;101837.94;5041280;28;45600;-79
2021/08/17 01:48:37;;;;;;;;;0.75;0.75;;;;;16.95;59.01;101828.28;5040309;28;49000;-78
2021/08/17 01:51:03;;;;;;;;;0.75;0.75;;;;;17.02;59.07;101831.75;5045237;28;47166;-79
2021/08/17 01:53:29;;;;;;;;;0.00;0.00;;;;;17.05;59.59;101837.91;5053431;28;45442;-79
2021/08/17 01:55:56;;;;;;;;;1.75;0.00;;;;;17.05;59.43;101831.75;5051945;28;45514;-78
2021/08/17 01:58:23;;;;;;;;;0.00;0.00;;;;;17.02;58.96;101831.75;5054629;28;45503;-79
2021/08/17 02:00:49;;;;;;;;;1.00;1.00;;;;;16.74;58.88;101777.44;5050178;28;45393;-79
2021/08/17 02:03:14;;;;;;;;;2.75;1.00;;;;;16.72;59.70;101794.97;5053656;28;49187;-79
2021/08/17 02:05:40;;;;;;;;;1.00;1.00;;;;;16.97;59.28;101827.38;5054406;28;45467;-79
2021/08/17 02:08:05;;;;;;;;;0.00;0.00;;;;;16.92;59.38;101821.28;5055602;28;45485;-79
2021/08/17 02:10:31;;;;;;;;;0.00;0.00;;;;;16.88;59.79;101805.50;5055237;28;45679;-79
2021/08/17 02:12:56;;;;;;;;;0.50;0.50;;;;;16.92;59.54;101820.38;5057945;28;45404;-79
2021/08/17 02:15:22;;;;;;;;;3.50;0.00;;;;;16.86;59.53;101818.66;5057282;28;45643;-79
2021/08/17 02:17:47;;;;;;;;;0.00;0.00;;;;;16.83;60.31;101821.28;5035449;28;45400;-79
2021/08/17 02:20:13;;;;;;;;;0.00;0.00;;;;;16.79;60.19;101819.53;5073891;28;47247;-79
2021/08/17 02:22:39;;;;;;;;;0.00;0.00;;;;;16.78;59.83;101826.53;5045199;28;45422;-78
2021/08/17 02:25:05;;;;;;;;;1.00;1.00;;;;;16.80;60.01;101818.63;5051351;28;45389;-78
2021/08/17 02:27:35;;;;;;;;;1.00;1.00;;;;;16.76;59.92;101816.88;5052677;28;45575;-79
2021/08/17 02:30:01;;;;;;;;;0.00;0.00;;;;;16.67;59.90;101817.78;5051569;28;47119;-78
2021/08/17 02:32:26;;;;;;;;;0.00;0.00;;;;;16.49;60.44;101794.97;5056140;28;45675;-78
2021/08/17 02:34:51;;;;;;;;;0.25;0.25;;;;;16.57;60.22;101812.50;5055246;28;46007;-79
2021/08/17 02:37:17;;;;;;;;;0.00;0.00;;;;;16.38;60.60;101777.44;5052456;28;48077;-79
2021/08/17 02:39:42;;;;;;;;;0.00;0.00;;;;;16.61;59.88;101818.66;5052095;28;45987;-78
2021/08/17 02:42:07;;;;;;;;;0.50;0.50;;;;;16.57;60.02;101814.28;5051809;28;53912;-79
2021/08/17 02:44:33;;;;;;;;;2.00;0.00;;;;;16.59;60.29;101820.38;5055131;28;45452;-78
2021/08/17 02:46:58;;;;;;;;;0.50;0.50;;;;;16.50;60.49;101816.00;5055506;28;45404;-78
2021/08/17 02:49:23;;;;;;;;;0.00;0.00;;;;;16.46;60.62;101824.75;5057160;28;45387;-80
2021/08/17 02:51:48;;;;;;;;;0.00;0.00;;;;;16.46;60.79;101822.13;5047167;28;45478;-78
2021/08/17 02:54:14;;;;;;;;;0.00;0.00;;;;;16.50;60.45;101823.88;5043939;28;45568;-78
2021/08/17 02:56:39;;;;;;;;;0.00;0.00;;;;;16.49;60.86;101823.88;5042353;28;45399;-78
2021/08/17 02:59:04;;;;;;;;;0.00;0.00;;;;;16.51;60.45;101820.38;5051150;28;54737;-79
2021/08/17 03:01:30;;;;;;;;;1.25;0.00;;;;;16.29;60.72;101791.44;5053721;28;45430;-78
2021/08/17 03:03:55;;;;;;;;;2.00;0.00;;;;;16.45;60.26;101823.88;5052213;28;45499;-78
2021/08/17 03:06:20;;;;;;;;;2.00;0.50;;;;;16.41;60.44;101814.22;5047041;28;47401;-78
2021/08/17 03:08:46;;;;;;;;;0.00;0.00;;;;;16.26;60.79;101801.94;5042769;28;46498;-79
2021/08/17 03:11:11;;;;;;;;;0.00;0.00;;;;;16.08;60.30;101774.78;5039903;28;55455;-79
2021/08/17 03:13:36;;;;;;;;;0.00;0.00;;;;;16.12;60.79;101786.16;5043217;28;45446;-81
2021/08/17 03:16:02;;;;;;;;;0.25;0.25;;;;;15.88;61.24;101752.81;5050054;28;45509;-80
2021/08/17 03:18:27;;;;;;;;;2.75;1.25;;;;;16.29;60.84;101819.50;5051589;28;46272;-79
2021/08/17 03:20:53;;;;;;;;;1.25;0.00;;;;;16.13;61.09;101784.41;5051297;28;45599;-79
2021/08/17 03:23:19;;;;;;;;;1.25;1.00;;;;;16.32;60.54;101804.59;5053045;28;45328;-80
2021/08/17 03:25:44;;;;;;;;;0.00;0.00;;;;;16.32;61.10;101804.59;5043155;28;45146;-79
2021/08/17 03:28:10;;;;;;;;;0.00;0.00;;;;;16.29;60.69;101812.47;5051053;28;45526;-79
2021/08/17 03:30:36;;;;;;;;;1.75;0.00;;;;;15.85;60.77;101743.19;5048643;28;45531;-79
2021/08/17 03:33:02;;;;;;;;;0.00;0.00;;;;;16.24;61.35;101806.34;5048099;28;45485;-79
2021/08/17 03:35:27;;;;;;;;;0.00;0.00;;;;;16.28;60.68;101808.09;5039635;28;45515;-79
2021/08/17 03:37:53;;;;;;;;;0.00;0.00;;;;;16.24;60.97;101806.34;5041041;28;45347;-81
2021/08/17 03:40:20;;;;;;;;;0.00;0.00;;;;;16.17;61.36;101794.91;5043347;28;45550;-79
2021/08/17 03:42:46;;;;;;;;;0.00;0.00;;;;;16.15;61.24;101803.69;5043666;28;45380;-79
2021/08/17 03:45:14;;;;;;;;;0.00;0.00;;;;;16.19;61.40;101811.56;5042461;28;45242;-79
2021/08/17 03:47:40;;;;;;;;;1.75;0.00;;;;;16.23;61.18;101811.59;5053265;28;45890;-79
2021/08/17 03:50:08;;;;;;;;;0.00;0.00;;;;;16.07;61.18;101790.53;5053695;28;45551;-79
2021/08/17 03:52:34;;;;;;;;;1.50;0.25;;;;;16.04;61.20;101806.25;5051538;28;45396;-79
2021/08/17 03:55:00;;;;;;;;;0.00;0.00;;;;;16.05;61.48;101811.53;5051409;28;45517;-79
2021/08/17 03:57:25;;;;;;;;;0.00;0.00;;;;;15.93;61.45;101791.31;5049452;28;45426;-79
2021/08/17 03:59:51;;;;;;;;;0.25;0.00;;;;;16.06;61.13;101812.41;5042229;28;47222;-79
2021/08/17 04:02:16;;;;;;;;;1.00;1.00;;;;;15.95;61.31;101813.22;5042932;28;45791;-80
2021/08/17 04:04:41;;;;;;;;;0.75;0.00;;;;;15.94;61.48;101803.59;5042259;28;45354;-79
2021/08/17 04:07:07;;;;;;;;;1.00;1.00;;;;;16.04;61.47;101814.16;5041844;28;61209;-79
2021/08/17 04:09:32;;;;;;;;;1.25;0.00;;;;;16.07;61.84;101815.03;5044914;28;45498;-79
2021/08/17 04:11:57;;;;;;;;;0.00;0.00;;;;;15.86;61.33;101788.69;5052748;28;45471;-79
2021/08/17 04:14:22;;;;;;;;;0.00;0.00;;;;;15.83;61.76;101806.19;5039154;28;45270;-79
2021/08/17 04:16:48;;;;;;;;;0.25;0.25;;;;;15.73;61.87;101795.63;5057090;28;49494;-79
2021/08/17 04:19:13;;;;;;;;;0.00;0.00;;;;;15.68;62.17;101800.88;5049348;28;45475;-79
2021/08/17 04:21:38;;;;;;;;;1.25;0.00;;;;;15.75;62.21;101814.91;5049870;28;45304;-80
2021/08/17 04:24:04;;;;;;;;;0.00;0.00;;;;;15.39;61.99;101730.75;5050644;28;45413;-79
2021/08/17 04:26:29;;;;;;;;;0.00;0.00;;;;;15.52;62.05;101758.81;5053304;28;46172;-79
2021/08/17 04:28:55;;;;;;;;;1.50;0.00;;;;;15.78;62.01;101796.53;5051919;28;45628;-79
2021/08/17 04:31:20;;;;;;;;;2.00;1.00;;;;;15.73;61.97;101787.75;5055612;28;45336;-79
2021/08/17 04:33:45;;;;;;;;;4.75;0.00;;;;;15.55;61.82;101752.69;5046111;28;45513;-79
2021/08/17 04:36:12;;;;;;;;;1.00;0.00;;;;;15.81;62.03;101799.19;5040083;28;46633;-79
2021/08/17 04:38:37;;;;;;;;;0.00;0.00;;;;;15.82;62.04;101800.91;5052383;28;45398;-78
2021/08/17 04:41:02;;;;;;;;;1.00;0.00;;;;;15.78;62.09;101796.53;5052350;28;45438;-79
2021/08/17 04:43:28;;;;;;;;;0.25;0.00;;;;;15.80;62.32;101800.03;5052616;28;45402;-79
2021/08/17 04:45:53;;;;;;;;;0.25;0.00;;;;;15.81;62.63;101800.03;5050207;28;52206;-79
2021/08/17 04:48:19;;;;;;;;;0.00;0.00;;;;;15.83;62.19;101800.94;5050686;28;45402;-79
2021/08/17 04:50:45;;;;;;;;;2.50;1.00;;;;;15.79;62.57;101799.16;5053500;28;45418;-79
2021/08/17 04:53:10;;;;;;;;;4.00;0.25;;;;;15.60;62.75;101777.22;5054958;28;45818;-79
2021/08/17 04:55:36;;;;;;;;;1.00;0.25;;;;;15.74;62.44;101802.66;5041395;28;45421;-79
2021/08/17 04:58:01;;;;;;;;;0.00;0.00;;;;;15.61;62.50;101780.69;5047962;28;45442;-80
2021/08/17 05:00:29;;;;;;;;;0.00;0.00;;;;;15.67;62.64;101802.63;5049462;28;45530;-79
2021/08/17 05:02:55;;;;;;;;;0.00;0.00;;;;;15.66;62.71;101806.13;5039591;28;45468;-79
2021/08/17 05:05:21;;;;;;;;;0.00;0.00;;;;;15.68;62.42;101799.13;5054242;28;46278;-79
2021/08/17 05:07:46;;;;;;;;;0.75;0.00;;;;;15.70;62.53;101802.63;5052604;28;45360;-79
2021/08/17 05:10:21;;;;;;;;;0.00;0.00;;;;;15.66;62.53;101798.25;5049617;28;45382;-79
2021/08/17 05:12:47;;;;;;;;;0.00;0.00;;;;;15.56;62.72;101788.59;5042053;28;45468;-80
2021/08/17 05:15:13;;;;;;;;;0.50;0.00;;;;;15.75;62.77;101815.78;5042263;28;46477;-79
2021/08/17 05:17:39;;;;;;;;;0.00;0.00;;;;;15.83;62.30;101821.03;5051309;28;45464;-79
2021/08/17 05:20:07;;;;;;;;;0.00;0.00;;;;;15.70;62.44;101788.63;5052407;28;45404;-79
2021/08/17 05:22:32;;;;;;;;;1.25;1.25;;;;;15.60;62.22;101769.34;5034539;28;45281;-79
2021/08/17 05:24:58;;;;;;;;;0.25;0.25;;;;;15.88;62.35;101816.69;5049352;28;46589;-79
2021/08/17 05:27:23;;;;;;;;;0.00;0.00;;;;;15.83;62.43;101815.78;5055238;28;49660;-80
2021/08/17 05:29:51;;;;;;;;;1.00;1.00;;;;;15.79;62.46;101814.91;5052391;28;45544;-79
2021/08/17 05:32:17;;;;;;;;;0.00;0.00;;;;;15.42;62.30;101759.63;5043436;28;48239;-78
2021/08/17 05:34:43;;;;;;;;;0.50;0.00;;;;;15.76;62.64;101828.03;5041288;28;46847;-79
2021/08/17 05:37:08;;;;;;;;;0.00;0.00;;;;;15.81;62.65;101831.53;5041730;28;45491;-79
2021/08/17 05:39:33;;;;;;;;;0.00;0.00;;;;;15.81;62.66;101838.56;5044455;28;48570;-79
2021/08/17 05:41:58;;;;;;;;;0.00;0.00;;;;;15.85;62.58;101837.69;5044786;28;45533;-79
2021/08/17 05:44:24;;;;;;;;;0.00;0.00;;;;;15.93;62.28;101841.22;5043108;28;45504;-80
2021/08/17 05:46:49;;;;;;;;;0.25;0.25;;;;;15.93;62.82;101835.97;5042529;28;60167;-79
2021/08/17 05:49:14;;;;;;;;;0.00;0.00;;;;;15.95;62.51;101826.34;5044550;28;45634;-79
2021/08/17 05:51:40;;;;;;;;;0.00;0.00;;;;;15.93;62.34;101837.72;5047391;28;45499;-79
2021/08/17 05:54:05;;;;;;;;;0.00;0.00;;;;;15.94;62.18;101845.63;5052881;28;45959;-79
2021/08/17 05:56:30;;;;;;;;;1.75;0.00;;;;;15.62;62.49;101791.22;5048479;28;45403;-80
2021/08/17 05:58:55;;;;;;;;;0.00;0.00;;;;;15.97;61.87;101834.28;5058255;28;45441;-78
2021/08/17 06:01:21;;;;;;;;;0.00;0.00;;;;;16.00;62.26;101843.91;5055942;28;49636;-79
2021/08/17 06:03:46;;;;;;;;;0.25;0.25;;;;;16.06;61.98;101851.81;5052838;28;46026;-80
2021/08/17 06:06:12;;;;;;;;;0.00;0.00;;;;;16.03;62.23;101850.06;5052611;28;45529;-79
2021/08/17 06:08:37;;;;;;;;;0.00;0.00;;;;;16.09;62.38;101844.81;5055479;28;45434;-78
2021/08/17 06:11:02;;;;;;;;;0.00;0.00;;;;;16.09;62.27;101849.19;5056632;28;45499;-79
2021/08/17 06:13:28;;;;;;;;;0.00;0.00;;;;;16.12;62.25;101849.22;5053930;28;45518;-78
2021/08/17 06:15:54;;;;;;;;;1.00;0.25;;;;;16.18;62.26;101843.97;5051651;28;45459;-79
2021/08/17 06:18:19;;;;;;;;;0.00;0.00;;;;;16.17;62.07;101829.06;5049032;28;45421;-79
2021/08/17 06:20:44;;;;;;;;;0.25;0.00;;;;;15.84;61.68;101780.81;5042307;28;45504;-88
2021/08/17 06:23:10;;;;;;;;;0.00;0.00;;;;;16.18;61.63;101833.47;5045592;28;45632;-79
2021/08/17 06:25:35;;;;;;;;;0.00;0.00;;;;;16.46;61.39;101859.81;5047883;28;45223;-82
2021/08/17 06:28:06;;;;;;;;;0.00;0.00;;;;;16.28;61.72;101822.97;5040200;28;45729;-80
2021/08/17 06:30:31;;;;;;;;;2.25;0.00;;;;;16.51;61.33;101856.31;5045074;28;45878;-81
2021/08/17 06:32:57;;;;;;;;;0.00;0.00;;;;;16.23;61.46;101812.44;5037946;28;46514;-80
2021/08/17 06:35:23;;;;;;;;;1.00;0.00;;;;;16.59;61.25;101850.19;5057155;28;45633;-81
2021/08/17 06:37:48;;;;;;;;;0.00;0.00;;;;;16.61;61.56;101850.19;5055666;28;45608;-84
2021/08/17 06:40:14;;;;;;;;;0.00;0.00;;;;;16.34;61.63;101822.97;5056126;28;45509;-79
2021/08/17 06:42:39;;;;;;;;;1.00;0.00;;;;;16.57;61.40;101859.81;5047213;28;45606;-83
2021/08/17 06:45:06;;;;;;;;;4.00;0.00;;;;;16.21;61.40;101807.19;5043252;28;45231;-82
2021/08/17 06:47:31;;;;;;;;;0.00;0.00;;;;;16.16;61.38;101813.31;5040762;28;45566;-82
2021/08/17 06:49:56;;;;;;;;;0.00;0.00;;;;;16.49;61.58;101874.69;5041552;28;45345;-82
2021/08/17 06:52:21;;;;;;;;;0.00;0.00;;;;;16.46;61.75;101853.66;5052470;28;47507;-83
2021/08/17 06:54:47;;;;;;;;;1.00;0.75;;;;;16.53;61.30;101851.91;5051748;28;52084;-82
2021/08/17 06:57:12;;;;;;;;;0.00;0.00;;;;;16.69;61.56;101871.25;5051366;28;45425;-80
2021/08/17 06:59:37;;;;;;;;;0.00;0.00;;;;;16.65;61.59;101854.56;5055245;28;45792;-82
2021/08/17 07:02:03;;;;;;;;;0.00;0.00;;;;;16.53;61.50;101849.28;5040606;28;45389;-83
2021/08/17 07:04:28;;;;;;;;;0.25;0.00;;;;;16.35;61.23;101814.22;5042985;28;45514;-83
2021/08/17 07:06:53;;;;;;;;;0.00;0.00;;;;;16.69;61.10;101860.72;5043094;28;50694;-82
2021/08/17 07:09:19;;;;;;;;;0.00;0.00;;;;;16.42;61.37;101810.72;5043829;28;45362;-83
2021/08/17 07:11:44;;;;;;;;;0.00;0.00;;;;;16.54;61.28;101836.16;5041758;28;46179;-82
2021/08/17 07:14:09;;;;;;;;;2.00;0.00;;;;;16.31;60.94;101794.97;5039561;28;51095;-83
2021/08/17 07:16:36;;;;;;;;;0.75;0.00;;;;;16.65;61.82;101848.41;5034503;28;45409;-83
2021/08/17 07:19:02;;;;;;;;;0.00;0.00;;;;;16.69;61.38;101853.69;5051297;28;45560;-83
2021/08/17 07:21:27;;;;;;;;;0.00;0.00;;;;;16.87;61.06;101858.97;5050972;28;45246;-83
2021/08/17 07:23:52;;;;;;;;;0.25;0.25;;;;;16.61;61.33;101817.75;5051375;28;49791;-82
2021/08/17 07:26:18;;;;;;;;;0.50;0.50;;;;;16.55;61.10;101810.75;5055581;28;45321;-82
2021/08/17 07:28:43;;;;;;;;;0.00;0.00;;;;;16.82;61.32;101840.56;5054618;28;45568;-84
2021/08/17 07:31:09;;;;;;;;;0.00;0.00;;;;;16.75;60.91;101828.28;5043235;28;48176;-82
2021/08/17 07:33:34;;;;;;;;;0.00;0.00;;;;;16.77;60.84;101826.53;5041156;28;45494;-82
2021/08/17 07:36:00;;;;;;;;;0.00;0.00;;;;;17.05;60.92;101851.06;5054407;28;45446;-83
2021/08/17 07:38:25;;;;;;;;;0.00;0.00;;;;;16.78;61.15;101807.25;5048712;27;45449;-82
2021/08/17 07:40:50;;;;;;;;;0.00;0.00;;;;;16.88;61.33;101818.66;5032856;28;46920;-83
2021/08/17 07:43:16;;;;;;;;;0.00;0.00;;;;;17.12;61.28;101838.81;5050320;28;46627;-83
2021/08/17 07:45:41;;;;;;;;;2.00;0.00;;;;;17.38;60.48;101869.47;5047625;28;45704;-83
2021/08/17 07:48:07;;;;;;;;;0.75;0.00;;;;;17.43;61.03;101874.75;5057627;28;45520;-82
2021/08/17 07:50:38;;;;;;;;;0.25;0.25;;;;;17.35;61.30;101859.84;5046285;27;45277;-83
2021/08/17 07:53:03;;;;;;;;;0.00;0.00;;;;;17.30;60.83;101852.84;5055839;28;48478;-81
2021/08/17 07:55:29;;;;;;;;;0.00;0.00;;;;;17.46;60.53;101865.06;5047994;28;45468;-82
2021/08/17 07:57:54;;;;;;;;;1.00;0.00;;;;;17.10;60.40;101804.59;5045281;28;45484;-83
2021/08/17 08:00:19;;;;;;;;;0.00;0.00;;;;;17.02;60.58;101808.09;5058939;28;52843;-84
2021/08/17 08:02:45;;;;;;;;;0.25;0.25;;;;;17.38;61.49;101866.84;5040747;28;45463;-82
2021/08/17 08:05:10;;;;;;;;;0.00;0.00;;;;;17.32;61.09;101848.44;5051869;28;53558;-83
2021/08/17 08:07:35;;;;;;;;;0.25;0.00;;;;;17.49;60.93;101866.84;5048223;28;45487;-84
2021/08/17 08:10:01;;;;;;;;;1.25;0.00;;;;;17.51;61.59;101874.69;5046307;28;45825;-83
2021/08/17 08:12:26;;;;;;;;;3.00;0.00;;;;;17.51;61.31;101848.38;5060491;28;45498;-83
2021/08/17 08:14:51;;;;;;;;;0.00;0.00;;;;;17.88;60.88;101874.59;5056048;28;45464;-82
2021/08/17 08:17:17;;;;;;;;;1.00;0.00;;;;;17.81;60.69;101820.19;5051211;28;45501;-82
2021/08/17 08:19:42;;;;;;;;;0.00;0.00;;;;;18.26;60.30;101869.19;5050845;28;45536;-82
2021/08/17 08:22:08;;;;;;;;;0.00;0.00;;;;;17.99;60.16;101811.34;5046467;28;45410;-82
2021/08/17 08:24:35;;;;;;;;;0.00;0.00;;;;;18.39;59.78;101878.78;5059252;28;45441;-83
2021/08/17 08:27:00;;;;;;;;;0.50;0.50;;;;;18.02;59.61;101813.97;5051902;28;45481;-88
2021/08/17 08:29:26;;;;;;;;;2.00;0.00;;;;;18.30;59.86;101852.47;5049911;28;46479;-81
2021/08/17 08:31:51;;;;;;;;;0.00;0.00;;;;;18.41;59.52;101879.63;5068459;28;45553;-83
2021/08/17 08:34:16;;;;;;;;;0.00;0.00;;;;;18.33;59.93;101870.91;5042482;28;45457;-83
2021/08/17 08:36:42;;;;;;;;;0.00;0.00;;;;;18.36;59.84;101886.72;5042414;28;45454;-82
2021/08/17 08:39:07;;;;;;;;;0.00;0.00;;;;;18.27;60.12;101882.38;5041013;28;46189;-82
2021/08/17 08:41:33;;;;;;;;;0.00;0.00;;;;;18.25;59.52;101888.53;5038784;28;45395;-82
2021/08/17 08:43:58;;;;;;;;;0.75;0.00;;;;;18.19;59.71;101863.09;5039391;28;45371;-82
2021/08/17 08:46:25;;;;;;;;;0.00;0.00;;;;;18.02;59.58;101832.41;5042313;28;45511;-82
2021/08/17 08:48:53;;;;;;;;;1.00;0.00;;;;;18.03;59.78;101833.25;5049619;28;46898;-83
2021/08/17 08:51:21;;;;;;;;;0.00;0.00;;;;;18.32;59.61;101861.25;5049154;28;45510;-82
2021/08/17 08:53:47;;;;;;;;;0.75;0.50;;;;;18.61;59.45;101892.72;5035890;28;45636;-83
2021/08/17 08:56:13;;;;;;;;;0.00;0.00;;;;;18.60;59.17;101890.97;5052618;28;45495;-83
2021/08/17 08:58:41;;;;;;;;;0.00;0.00;;;;;18.27;59.46;101826.13;5036587;28;47286;-82
2021/08/17 09:01:09;;;;;;;;;0.00;0.00;;;;;18.63;59.31;101876.88;5041942;28;45401;-82
2021/08/17 09:03:56;;;;;;;;;1.00;0.00;;;;;18.46;59.28;101840.94;5031632;28;45512;-83
2021/08/17 09:06:30;;;;;;;;;1.00;0.00;;;;;18.42;59.01;101839.22;5041889;28;45435;-83
2021/08/17 09:09:18;;;;;;;;;0.00;0.00;;;;;18.63;58.78;101882.16;5034153;28;48339;-82
2021/08/17 09:11:49;;;;;;;;;0.00;0.00;;;;;18.68;59.30;101880.34;5038259;28;45575;-82
2021/08/17 09:14:29;;;;;;;;;0.00;0.00;;;;;18.80;58.75;101863.56;5053741;28;45447;-80
2021/08/17 09:17:04;;;;;;;;;0.00;0.00;;;;;19.07;58.49;101881.78;5053228;28;45457;-81
2021/08/17 09:19:33;;;;;;;;;0.00;0.00;;;;;19.18;57.49;101885.28;5020515;28;48297;-79
2021/08/17 09:22:16;;;;;;;;;1.00;1.00;;;;;19.08;57.66;101855.44;5041461;28;45629;-79
2021/08/17 09:24:48;;;;;;;;;0.75;0.00;;;;;18.95;58.21;101833.53;5043996;28;45449;-79
2021/08/17 09:27:19;;;;;;;;;1.00;0.00;;;;;19.39;57.91;101877.16;5056162;28;45247;-78
2021/08/17 09:29:47;;;;;;;;;1.00;0.00;;;;;19.34;57.36;101862.22;5049422;27;46076;-80
2021/08/17 09:32:18;;;;;;;;;0.00;0.00;;;;;19.56;57.21;101875.19;5046860;28;45671;-77
2021/08/17 09:34:50;;;;;;;;;0.00;0.00;;;;;19.30;56.58;101831.47;5054509;28;45402;-83
2021/08/17 09:37:16;;;;;;;;;0.00;0.00;;;;;19.55;55.98;101873.47;5050280;28;45614;-78
2021/08/17 09:39:45;;;;;;;;;0.00;0.00;;;;;19.48;55.62;101862.06;5027163;28;46529;-76
2021/08/17 09:42:32;;;;;;;;;0.00;0.00;;;;;19.53;55.59;101864.66;5050406;28;46502;-76
2021/08/17 09:45:16;;;;;;;;;0.00;0.00;;;;;19.39;55.32;101849.00;5051188;28;45508;-80
2021/08/17 09:47:53;;;;;;;;;0.00;0.00;;;;;19.48;55.70;101863.84;5055747;28;45443;-78
2021/08/17 09:50:20;;;;;;;;;0.00;0.00;;;;;19.55;55.27;101857.63;5050567;28;46817;-79
2021/08/17 09:52:47;;;;;;;;;0.00;0.00;;;;;19.54;55.60;101844.41;5051597;28;45658;-78
2021/08/17 09:55:21;;;;;;;;;0.00;0.00;;;;;19.59;55.66;101861.06;5049085;28;46488;-77
2021/08/17 09:57:47;;;;;;;;;0.00;0.00;;;;;19.24;55.88;101808.63;5028604;28;45545;-79
2021/08/17 10:00:17;;;;;;;;;0.25;0.00;;;;;19.53;55.66;101853.22;5041646;28;45344;-77
2021/08/17 10:02:46;;;;;;;;;0.00;0.00;;;;;19.44;55.69;101826.03;5048995;28;45562;-77
2021/08/17 10:05:14;;;;;;;;;0.00;0.00;;;;;19.60;56.08;101849.63;5051339;28;45471;-76
2021/08/17 10:07:41;;;;;;;;;0.00;0.00;;;;;19.61;55.74;101824.97;5053588;28;45877;-78
2021/08/17 10:10:08;;;;;;;;;0.00;0.00;;;;;19.91;55.10;101853.66;5046909;28;45673;-80
2021/08/17 10:12:36;;;;;;;;;0.00;0.00;;;;;20.02;54.28;101838.56;5044363;28;45505;-76
2021/08/17 10:15:02;;;;;;;;;0.00;0.00;;;;;20.11;53.53;101843.72;5048599;28;48816;-77
2021/08/17 10:17:27;;;;;;;;;0.50;0.00;;;;;19.94;53.28;101841.28;5048765;28;45504;-76
2021/08/17 10:19:53;;;;;;;;;0.00;0.00;;;;;19.89;52.81;101843.13;5039204;28;57840;-79
2021/08/17 10:22:19;;;;;;;;;2.00;0.00;;;;;19.76;53.36;101839.75;5039169;28;45485;-80
2021/08/17 10:24:47;;;;;;;;;0.00;0.00;;;;;19.89;52.56;101843.13;5044860;28;45474;-78
2021/08/17 10:27:23;;;;;;;;;0.00;0.00;;;;;19.77;52.78;101824.75;5052578;28;45713;-79
2021/08/17 10:30:09;;;;;;;;;1.00;1.00;;;;;19.95;53.47;101832.47;5042212;28;46695;-78
2021/08/17 10:32:59;;;;;;;;;3.00;0.00;;;;;19.91;52.88;101833.41;5043062;28;45495;-78
2021/08/17 10:35:27;;;;;;;;;0.00;0.00;;;;;19.80;52.80;101830.00;5039945;28;46837;-79
2021/08/17 10:38:08;;;;;;;;;0.00;0.00;;;;;19.82;52.89;101833.53;5049502;28;45533;-79
2021/08/17 10:40:48;;;;;;;;;0.00;0.00;;;;;19.88;52.90;101828.16;5042416;28;45451;-78
2021/08/17 10:43:14;;;;;;;;;0.00;0.00;;;;;19.71;51.97;101788.75;5051552;28;45590;-78
2021/08/17 10:45:49;;;;;;;;;1.00;1.00;;;;;19.91;51.65;101828.13;5051557;28;45443;-79
2021/08/17 10:48:43;;;;;;;;;0.00;0.00;;;;;19.99;52.05;101818.31;5052103;28;45250;-81
2021/08/17 10:51:10;;;;;;;;;0.00;0.00;;;;;20.11;51.45;101816.41;5052018;28;46338;-79
2021/08/17 10:53:38;;;;;;;;;0.00;0.00;;;;;19.97;51.41;101792.81;5039127;28;45332;-79
2021/08/17 10:56:12;;;;;;;;;0.00;0.00;;;;;19.93;50.41;101797.25;5020222;28;45302;-78
2021/08/17 10:58:43;;;;;;;;;0.00;0.00;;;;;20.02;49.84;101819.19;5042831;28;45498;-79
2021/08/17 11:01:09;;;;;;;;;0.00;0.00;;;;;20.00;50.83;101820.09;5049946;28;45763;-81
2021/08/17 11:03:37;;;;;;;;;0.00;0.00;;;;;19.91;51.17;101803.47;5051019;28;45438;-78
2021/08/17 11:06:03;;;;;;;;;0.00;0.00;;;;;19.78;51.02;101798.31;5048745;28;45407;-78
2021/08/17 11:08:31;;;;;;;;;0.00;0.00;;;;;19.84;51.40;101811.47;5039423;28;45395;-79
2021/08/17 11:10:57;;;;;;;;;0.00;0.00;;;;;19.57;51.26;101749.31;5041297;28;46333;-78
2021/08/17 11:13:25;;;;;;;;;0.00;0.00;;;;;20.10;51.20;101812.03;5054860;28;45297;-80
2021/08/17 11:16:09;;;;;;;;;1.50;0.00;;;;;20.45;51.22;101800.03;5047023;28;45260;-81
2021/08/17 11:18:55;;;;;;;;;0.00;0.00;;;;;20.52;50.04;101774.34;5039917;28;45632;-79
2021/08/17 11:21:40;;;;;;;;;0.00;0.00;;;;;20.49;48.68;101748.00;5042409;28;45375;-80
2021/08/17 11:24:24;;;;;;;;;0.00;0.00;;;;;20.92;48.79;101799.28;5041565;28;45688;-79